sensor_id;sensor_type;location;lat;lon;timestamp;P1;durP1;ratioP1;P2;durP2;ratioP2
69081;SDS011;69029;51.986;5.760;2023-05-10T00:01:48;42.67;;;21.65;;
69081;SDS011;69029;51.986;5.760;2023-05-10T00:04:13;46.45;;;20.17;;
69081;SDS011;69029;51.986;5.760;2023-05-10T00:06:40;44.70;;;22.83;;
69081;SDS011;69029;51.986;5.760;2023-05-10T00:09:07;41.88;;;21.55;;
69081;SDS011;69029;51.986;5.760;2023-05-10T00:11:33;33.03;;;20.55;;
69081;SDS011;69029;51.986;5.760;2023-05-10T00:13:58;45.03;;;24.25;;
69081;SDS011;69029;51.986;5.760;2023-05-10T00:16:24;43.95;;;24.40;;
69081;SDS011;69029;51.986;5.760;2023-05-10T00:18:50;38.55;;;22.52;;
69081;SDS011;69029;51.986;5.760;2023-05-10T00:21:16;34.15;;;20.08;;
69081;SDS011;69029;51.986;5.760;2023-05-10T00:23:42;40.20;;;22.58;;
69081;SDS011;69029;51.986;5.760;2023-05-10T00:26:08;45.70;;;24.63;;
69081;SDS011;69029;51.986;5.760;2023-05-10T00:28:33;43.95;;;24.25;;
69081;SDS011;69029;51.986;5.760;2023-05-10T00:30:59;48.53;;;24.73;;
69081;SDS011;69029;51.986;5.760;2023-05-10T00:33:25;44.15;;;25.02;;
69081;SDS011;69029;51.986;5.760;2023-05-10T00:35:50;53.00;;;26.55;;
69081;SDS011;69029;51.986;5.760;2023-05-10T00:38:16;47.78;;;26.40;;
69081;SDS011;69029;51.986;5.760;2023-05-10T00:40:42;52.65;;;26.67;;
69081;SDS011;69029;51.986;5.760;2023-05-10T00:43:09;51.38;;;27.58;;
69081;SDS011;69029;51.986;5.760;2023-05-10T00:45:34;52.72;;;26.77;;
69081;SDS011;69029;51.986;5.760;2023-05-10T00:48:02;52.60;;;25.63;;
69081;SDS011;69029;51.986;5.760;2023-05-10T00:50:29;45.28;;;25.25;;
69081;SDS011;69029;51.986;5.760;2023-05-10T00:52:56;46.65;;;25.58;;
69081;SDS011;69029;51.986;5.760;2023-05-10T00:55:25;52.22;;;27.33;;
69081;SDS011;69029;51.986;5.760;2023-05-10T00:57:51;53.78;;;27.35;;
69081;SDS011;69029;51.986;5.760;2023-05-10T01:00:20;44.78;;;25.33;;
69081;SDS011;69029;51.986;5.760;2023-05-10T01:02:45;49.03;;;27.40;;
69081;SDS011;69029;51.986;5.760;2023-05-10T01:05:14;58.00;;;27.67;;
69081;SDS011;69029;51.986;5.760;2023-05-10T01:07:41;58.22;;;28.20;;
69081;SDS011;69029;51.986;5.760;2023-05-10T01:10:07;55.35;;;28.38;;
69081;SDS011;69029;51.986;5.760;2023-05-10T01:12:37;60.28;;;28.52;;
69081;SDS011;69029;51.986;5.760;2023-05-10T01:15:06;57.63;;;28.85;;
69081;SDS011;69029;51.986;5.760;2023-05-10T01:17:34;60.38;;;27.75;;
69081;SDS011;69029;51.986;5.760;2023-05-10T01:20:01;54.03;;;26.58;;
69081;SDS011;69029;51.986;5.760;2023-05-10T01:22:36;55.40;;;28.27;;
69081;SDS011;69029;51.986;5.760;2023-05-10T01:31:18;58.13;;;26.48;;
69081;SDS011;69029;51.986;5.760;2023-05-10T01:50:08;44.15;;;22.95;;
69081;SDS011;69029;51.986;5.760;2023-05-10T01:55:13;52.13;;;25.10;;
69081;SDS011;69029;51.986;5.760;2023-05-10T01:57:42;44.65;;;23.90;;
69081;SDS011;69029;51.986;5.760;2023-05-10T02:00:09;55.67;;;25.38;;
69081;SDS011;69029;51.986;5.760;2023-05-10T02:02:39;52.83;;;24.42;;
69081;SDS011;69029;51.986;5.760;2023-05-10T02:05:07;51.25;;;24.83;;
69081;SDS011;69029;51.986;5.760;2023-05-10T02:07:35;54.38;;;26.50;;
69081;SDS011;69029;51.986;5.760;2023-05-10T02:10:02;55.40;;;26.45;;
69081;SDS011;69029;51.986;5.760;2023-05-10T02:12:31;50.83;;;25.27;;
69081;SDS011;69029;51.986;5.760;2023-05-10T02:15:00;54.47;;;26.38;;
69081;SDS011;69029;51.986;5.760;2023-05-10T02:17:30;51.88;;;25.58;;
69081;SDS011;69029;51.986;5.760;2023-05-10T02:19:56;55.47;;;26.20;;
69081;SDS011;69029;51.986;5.760;2023-05-10T02:22:25;53.88;;;26.02;;
69081;SDS011;69029;51.986;5.760;2023-05-10T02:24:53;55.28;;;25.25;;
69081;SDS011;69029;51.986;5.760;2023-05-10T02:27:20;57.03;;;25.10;;
69081;SDS011;69029;51.986;5.760;2023-05-10T02:29:48;50.53;;;25.52;;
69081;SDS011;69029;51.986;5.760;2023-05-10T02:32:15;52.17;;;25.42;;
69081;SDS011;69029;51.986;5.760;2023-05-10T02:34:42;56.47;;;25.85;;
69081;SDS011;69029;51.986;5.760;2023-05-10T02:37:10;58.65;;;26.70;;
69081;SDS011;69029;51.986;5.760;2023-05-10T02:39:40;55.22;;;26.10;;
69081;SDS011;69029;51.986;5.760;2023-05-10T02:42:10;56.00;;;25.60;;
69081;SDS011;69029;51.986;5.760;2023-05-10T02:44:41;62.22;;;27.35;;
69081;SDS011;69029;51.986;5.760;2023-05-10T02:47:10;57.20;;;26.17;;
69081;SDS011;69029;51.986;5.760;2023-05-10T02:49:36;58.30;;;27.10;;
69081;SDS011;69029;51.986;5.760;2023-05-10T02:52:02;64.30;;;27.10;;
69081;SDS011;69029;51.986;5.760;2023-05-10T02:54:33;58.08;;;26.65;;
69081;SDS011;69029;51.986;5.760;2023-05-10T02:57:04;54.80;;;25.33;;
69081;SDS011;69029;51.986;5.760;2023-05-10T02:59:30;51.08;;;25.23;;
69081;SDS011;69029;51.986;5.760;2023-05-10T03:01:57;55.47;;;26.42;;
69081;SDS011;69029;51.986;5.760;2023-05-10T03:04:26;58.45;;;25.95;;
69081;SDS011;69029;51.986;5.760;2023-05-10T03:06:52;57.58;;;27.00;;
69081;SDS011;69029;51.986;5.760;2023-05-10T03:09:18;60.58;;;27.30;;
69081;SDS011;69029;51.986;5.760;2023-05-10T03:11:55;54.38;;;26.83;;
69081;SDS011;69029;51.986;5.760;2023-05-10T03:15:48;53.65;;;26.92;;
69081;SDS011;69029;51.986;5.760;2023-05-10T03:21:10;42.95;;;23.42;;
69081;SDS011;69029;51.986;5.760;2023-05-10T03:26:09;55.00;;;26.02;;
69081;SDS011;69029;51.986;5.760;2023-05-10T03:28:40;50.63;;;26.52;;
69081;SDS011;69029;51.986;5.760;2023-05-10T03:31:06;51.72;;;27.30;;
69081;SDS011;69029;51.986;5.760;2023-05-10T03:33:32;54.85;;;25.65;;
69081;SDS011;69029;51.986;5.760;2023-05-10T03:35:58;56.30;;;26.70;;
69081;SDS011;69029;51.986;5.760;2023-05-10T03:38:24;55.10;;;27.33;;
69081;SDS011;69029;51.986;5.760;2023-05-10T03:40:49;54.65;;;27.38;;
69081;SDS011;69029;51.986;5.760;2023-05-10T03:43:15;56.80;;;27.17;;
69081;SDS011;69029;51.986;5.760;2023-05-10T03:45:40;51.05;;;25.50;;
69081;SDS011;69029;51.986;5.760;2023-05-10T03:48:06;52.45;;;26.52;;
69081;SDS011;69029;51.986;5.760;2023-05-10T03:50:32;51.88;;;25.38;;
69081;SDS011;69029;51.986;5.760;2023-05-10T03:52:57;47.25;;;24.05;;
69081;SDS011;69029;51.986;5.760;2023-05-10T03:55:23;55.55;;;25.42;;
69081;SDS011;69029;51.986;5.760;2023-05-10T03:57:48;49.40;;;24.88;;
69081;SDS011;69029;51.986;5.760;2023-05-10T04:00:14;50.33;;;25.38;;
69081;SDS011;69029;51.986;5.760;2023-05-10T04:02:40;54.78;;;25.80;;
69081;SDS011;69029;51.986;5.760;2023-05-10T04:05:06;55.40;;;24.75;;
69081;SDS011;69029;51.986;5.760;2023-05-10T04:07:31;52.33;;;24.65;;
69081;SDS011;69029;51.986;5.760;2023-05-10T04:09:57;50.35;;;24.52;;
69081;SDS011;69029;51.986;5.760;2023-05-10T04:12:23;56.60;;;25.00;;
69081;SDS011;69029;51.986;5.760;2023-05-10T04:14:48;51.92;;;23.80;;
69081;SDS011;69029;51.986;5.760;2023-05-10T04:17:14;46.63;;;23.17;;
69081;SDS011;69029;51.986;5.760;2023-05-10T04:19:40;52.17;;;25.58;;
69081;SDS011;69029;51.986;5.760;2023-05-10T04:22:05;57.10;;;26.23;;
69081;SDS011;69029;51.986;5.760;2023-05-10T04:24:31;46.17;;;23.70;;
69081;SDS011;69029;51.986;5.760;2023-05-10T04:26:56;50.65;;;24.90;;
69081;SDS011;69029;51.986;5.760;2023-05-10T04:29:22;48.80;;;24.38;;
69081;SDS011;69029;51.986;5.760;2023-05-10T04:31:47;52.88;;;25.77;;
69081;SDS011;69029;51.986;5.760;2023-05-10T04:34:13;54.00;;;25.25;;
69081;SDS011;69029;51.986;5.760;2023-05-10T04:36:39;54.78;;;26.25;;
69081;SDS011;69029;51.986;5.760;2023-05-10T04:39:05;50.03;;;24.95;;
69081;SDS011;69029;51.986;5.760;2023-05-10T04:41:30;62.95;;;26.23;;
69081;SDS011;69029;51.986;5.760;2023-05-10T04:43:57;52.45;;;24.70;;
69081;SDS011;69029;51.986;5.760;2023-05-10T04:46:23;53.78;;;24.60;;
69081;SDS011;69029;51.986;5.760;2023-05-10T04:48:48;52.10;;;25.35;;
69081;SDS011;69029;51.986;5.760;2023-05-10T04:51:14;57.60;;;24.45;;
69081;SDS011;69029;51.986;5.760;2023-05-10T04:53:39;51.95;;;24.35;;
69081;SDS011;69029;51.986;5.760;2023-05-10T04:56:05;51.92;;;24.15;;
69081;SDS011;69029;51.986;5.760;2023-05-10T04:58:31;44.33;;;22.20;;
69081;SDS011;69029;51.986;5.760;2023-05-10T05:00:59;54.88;;;23.65;;
69081;SDS011;69029;51.986;5.760;2023-05-10T05:03:30;50.17;;;24.00;;
69081;SDS011;69029;51.986;5.760;2023-05-10T05:05:56;50.03;;;22.63;;
69081;SDS011;69029;51.986;5.760;2023-05-10T05:08:21;49.28;;;23.42;;
69081;SDS011;69029;51.986;5.760;2023-05-10T05:10:47;51.88;;;24.80;;
69081;SDS011;69029;51.986;5.760;2023-05-10T05:13:15;50.75;;;23.52;;
69081;SDS011;69029;51.986;5.760;2023-05-10T05:15:40;49.72;;;22.38;;
69081;SDS011;69029;51.986;5.760;2023-05-10T05:18:06;49.55;;;22.73;;
69081;SDS011;69029;51.986;5.760;2023-05-10T05:20:32;51.78;;;22.63;;
69081;SDS011;69029;51.986;5.760;2023-05-10T05:22:59;43.33;;;21.08;;
69081;SDS011;69029;51.986;5.760;2023-05-10T05:25:24;50.58;;;22.90;;
69081;SDS011;69029;51.986;5.760;2023-05-10T05:27:50;45.17;;;23.23;;
69081;SDS011;69029;51.986;5.760;2023-05-10T05:30:16;56.63;;;23.77;;
69081;SDS011;69029;51.986;5.760;2023-05-10T05:32:42;63.78;;;25.00;;
69081;SDS011;69029;51.986;5.760;2023-05-10T05:35:07;53.72;;;23.65;;
69081;SDS011;69029;51.986;5.760;2023-05-10T05:37:33;52.33;;;22.63;;
69081;SDS011;69029;51.986;5.760;2023-05-10T05:40:00;52.58;;;23.13;;
69081;SDS011;69029;51.986;5.760;2023-05-10T05:42:26;44.97;;;21.88;;
69081;SDS011;69029;51.986;5.760;2023-05-10T05:44:52;51.03;;;22.75;;
69081;SDS011;69029;51.986;5.760;2023-05-10T05:47:18;54.45;;;22.83;;
69081;SDS011;69029;51.986;5.760;2023-05-10T05:49:46;55.08;;;23.38;;
69081;SDS011;69029;51.986;5.760;2023-05-10T05:52:12;53.95;;;23.95;;
69081;SDS011;69029;51.986;5.760;2023-05-10T05:54:37;59.67;;;23.50;;
69081;SDS011;69029;51.986;5.760;2023-05-10T05:57:03;46.95;;;20.95;;
69081;SDS011;69029;51.986;5.760;2023-05-10T05:59:29;57.22;;;23.58;;
69081;SDS011;69029;51.986;5.760;2023-05-10T06:01:54;60.78;;;22.10;;
69081;SDS011;69029;51.986;5.760;2023-05-10T06:04:20;58.85;;;23.85;;
69081;SDS011;69029;51.986;5.760;2023-05-10T06:06:46;52.67;;;21.80;;
69081;SDS011;69029;51.986;5.760;2023-05-10T06:09:11;58.75;;;22.50;;
69081;SDS011;69029;51.986;5.760;2023-05-10T06:11:37;64.65;;;24.45;;
69081;SDS011;69029;51.986;5.760;2023-05-10T06:14:03;54.00;;;24.50;;
69081;SDS011;69029;51.986;5.760;2023-05-10T06:16:29;53.20;;;21.63;;
69081;SDS011;69029;51.986;5.760;2023-05-10T06:18:55;55.22;;;23.55;;
69081;SDS011;69029;51.986;5.760;2023-05-10T06:21:21;57.30;;;23.08;;
69081;SDS011;69029;51.986;5.760;2023-05-10T06:23:47;54.35;;;23.23;;
69081;SDS011;69029;51.986;5.760;2023-05-10T06:26:13;56.40;;;25.23;;
69081;SDS011;69029;51.986;5.760;2023-05-10T06:28:38;59.05;;;23.77;;
69081;SDS011;69029;51.986;5.760;2023-05-10T06:31:05;52.85;;;22.63;;
69081;SDS011;69029;51.986;5.760;2023-05-10T06:33:31;60.55;;;24.67;;
69081;SDS011;69029;51.986;5.760;2023-05-10T06:35:57;53.15;;;24.23;;
69081;SDS011;69029;51.986;5.760;2023-05-10T06:38:23;50.35;;;23.10;;
69081;SDS011;69029;51.986;5.760;2023-05-10T06:40:49;47.05;;;21.85;;
69081;SDS011;69029;51.986;5.760;2023-05-10T06:43:14;49.75;;;24.40;;
69081;SDS011;69029;51.986;5.760;2023-05-10T06:45:40;51.28;;;24.10;;
69081;SDS011;69029;51.986;5.760;2023-05-10T06:48:06;57.35;;;24.73;;
69081;SDS011;69029;51.986;5.760;2023-05-10T06:50:32;53.85;;;24.98;;
69081;SDS011;69029;51.986;5.760;2023-05-10T06:52:58;56.40;;;25.75;;
69081;SDS011;69029;51.986;5.760;2023-05-10T06:55:24;61.30;;;27.23;;
69081;SDS011;69029;51.986;5.760;2023-05-10T06:57:49;59.35;;;27.13;;
69081;SDS011;69029;51.986;5.760;2023-05-10T07:00:15;63.90;;;26.85;;
69081;SDS011;69029;51.986;5.760;2023-05-10T07:02:41;62.90;;;27.40;;
69081;SDS011;69029;51.986;5.760;2023-05-10T07:05:07;64.28;;;28.30;;
69081;SDS011;69029;51.986;5.760;2023-05-10T07:07:33;64.18;;;28.08;;
69081;SDS011;69029;51.986;5.760;2023-05-10T07:09:59;72.50;;;28.30;;
69081;SDS011;69029;51.986;5.760;2023-05-10T07:12:25;62.25;;;25.90;;
69081;SDS011;69029;51.986;5.760;2023-05-10T07:14:51;64.75;;;26.25;;
69081;SDS011;69029;51.986;5.760;2023-05-10T07:17:17;56.33;;;24.65;;
69081;SDS011;69029;51.986;5.760;2023-05-10T07:19:42;62.45;;;27.05;;
69081;SDS011;69029;51.986;5.760;2023-05-10T07:22:08;63.22;;;25.83;;
69081;SDS011;69029;51.986;5.760;2023-05-10T07:24:34;63.53;;;25.80;;
69081;SDS011;69029;51.986;5.760;2023-05-10T07:26:59;55.95;;;25.08;;
69081;SDS011;69029;51.986;5.760;2023-05-10T07:29:25;55.95;;;24.55;;
69081;SDS011;69029;51.986;5.760;2023-05-10T07:31:51;58.25;;;24.60;;
69081;SDS011;69029;51.986;5.760;2023-05-10T07:34:17;53.92;;;24.17;;
69081;SDS011;69029;51.986;5.760;2023-05-10T07:36:42;56.05;;;25.08;;
69081;SDS011;69029;51.986;5.760;2023-05-10T07:39:08;50.63;;;23.42;;
69081;SDS011;69029;51.986;5.760;2023-05-10T07:41:34;56.08;;;25.70;;
69081;SDS011;69029;51.986;5.760;2023-05-10T07:44:00;52.67;;;23.60;;
69081;SDS011;69029;51.986;5.760;2023-05-10T07:46:26;44.45;;;22.05;;
69081;SDS011;69029;51.986;5.760;2023-05-10T07:48:51;57.70;;;24.58;;
69081;SDS011;69029;51.986;5.760;2023-05-10T07:51:17;59.58;;;25.88;;
69081;SDS011;69029;51.986;5.760;2023-05-10T07:53:42;54.85;;;25.17;;
69081;SDS011;69029;51.986;5.760;2023-05-10T07:56:24;47.20;;;23.13;;
69081;SDS011;69029;51.986;5.760;2023-05-10T07:58:57;46.95;;;23.88;;
69081;SDS011;69029;51.986;5.760;2023-05-10T08:01:24;51.33;;;23.77;;
69081;SDS011;69029;51.986;5.760;2023-05-10T08:03:50;48.45;;;23.10;;
69081;SDS011;69029;51.986;5.760;2023-05-10T08:06:18;50.80;;;24.33;;
69081;SDS011;69029;51.986;5.760;2023-05-10T08:08:45;50.17;;;23.10;;
69081;SDS011;69029;51.986;5.760;2023-05-10T08:11:14;42.78;;;20.25;;
69081;SDS011;69029;51.986;5.760;2023-05-10T08:13:41;43.95;;;20.98;;
69081;SDS011;69029;51.986;5.760;2023-05-10T08:16:07;36.03;;;19.70;;
69081;SDS011;69029;51.986;5.760;2023-05-10T08:18:32;35.40;;;18.23;;
69081;SDS011;69029;51.986;5.760;2023-05-10T08:20:58;33.45;;;17.80;;
69081;SDS011;69029;51.986;5.760;2023-05-10T08:23:23;35.15;;;15.80;;
69081;SDS011;69029;51.986;5.760;2023-05-10T08:25:49;31.20;;;14.93;;
69081;SDS011;69029;51.986;5.760;2023-05-10T08:28:14;28.02;;;13.77;;
69081;SDS011;69029;51.986;5.760;2023-05-10T08:30:40;25.25;;;13.63;;
69081;SDS011;69029;51.986;5.760;2023-05-10T08:33:06;23.77;;;13.00;;
69081;SDS011;69029;51.986;5.760;2023-05-10T08:35:31;23.70;;;11.60;;
69081;SDS011;69029;51.986;5.760;2023-05-10T08:37:58;19.35;;;10.65;;
69081;SDS011;69029;51.986;5.760;2023-05-10T08:40:23;17.48;;;10.65;;
69081;SDS011;69029;51.986;5.760;2023-05-10T08:42:51;20.85;;;10.32;;
69081;SDS011;69029;51.986;5.760;2023-05-10T08:45:32;22.48;;;10.95;;
69081;SDS011;69029;51.986;5.760;2023-05-10T08:48:01;15.40;;;9.02;;
69081;SDS011;69029;51.986;5.760;2023-05-10T08:50:29;15.68;;;9.18;;
69081;SDS011;69029;51.986;5.760;2023-05-10T08:52:57;18.80;;;9.07;;
69081;SDS011;69029;51.986;5.760;2023-05-10T08:55:25;14.95;;;7.68;;
69081;SDS011;69029;51.986;5.760;2023-05-10T08:57:51;12.32;;;7.43;;
69081;SDS011;69029;51.986;5.760;2023-05-10T09:00:17;11.18;;;7.70;;
69081;SDS011;69029;51.986;5.760;2023-05-10T09:02:43;11.40;;;7.53;;
69081;SDS011;69029;51.986;5.760;2023-05-10T09:05:10;13.70;;;7.85;;
69081;SDS011;69029;51.986;5.760;2023-05-10T09:07:37;14.73;;;7.55;;
69081;SDS011;69029;51.986;5.760;2023-05-10T09:10:02;12.50;;;7.22;;
69081;SDS011;69029;51.986;5.760;2023-05-10T09:12:29;11.25;;;6.35;;
69081;SDS011;69029;51.986;5.760;2023-05-10T09:14:55;9.18;;;6.35;;
69081;SDS011;69029;51.986;5.760;2023-05-10T09:17:23;9.05;;;6.57;;
69081;SDS011;69029;51.986;5.760;2023-05-10T09:19:49;12.57;;;7.65;;
69081;SDS011;69029;51.986;5.760;2023-05-10T09:22:21;10.75;;;7.18;;
69081;SDS011;69029;51.986;5.760;2023-05-10T09:24:47;13.27;;;7.25;;
69081;SDS011;69029;51.986;5.760;2023-05-10T09:27:27;12.38;;;7.40;;
69081;SDS011;69029;51.986;5.760;2023-05-10T09:29:53;11.38;;;6.90;;
69081;SDS011;69029;51.986;5.760;2023-05-10T09:32:20;10.18;;;6.78;;
69081;SDS011;69029;51.986;5.760;2023-05-10T09:34:45;12.82;;;6.75;;
69081;SDS011;69029;51.986;5.760;2023-05-10T09:37:15;9.68;;;6.78;;
69081;SDS011;69029;51.986;5.760;2023-05-10T09:39:40;15.00;;;6.57;;
69081;SDS011;69029;51.986;5.760;2023-05-10T09:42:09;12.18;;;7.05;;
69081;SDS011;69029;51.986;5.760;2023-05-10T09:44:35;10.65;;;6.43;;
69081;SDS011;69029;51.986;5.760;2023-05-10T09:47:02;12.68;;;6.88;;
69081;SDS011;69029;51.986;5.760;2023-05-10T09:49:28;8.65;;;6.57;;
69081;SDS011;69029;51.986;5.760;2023-05-10T09:52:01;12.45;;;6.82;;
69081;SDS011;69029;51.986;5.760;2023-05-10T09:54:33;13.63;;;7.53;;
69081;SDS011;69029;51.986;5.760;2023-05-10T09:56:59;10.48;;;6.72;;
69081;SDS011;69029;51.986;5.760;2023-05-10T09:59:26;9.65;;;6.80;;
69081;SDS011;69029;51.986;5.760;2023-05-10T10:01:53;11.63;;;6.90;;
69081;SDS011;69029;51.986;5.760;2023-05-10T10:04:22;13.15;;;7.28;;
69081;SDS011;69029;51.986;5.760;2023-05-10T10:06:52;15.20;;;7.95;;
69081;SDS011;69029;51.986;5.760;2023-05-10T10:09:27;14.20;;;8.05;;
69081;SDS011;69029;51.986;5.760;2023-05-10T10:11:53;11.57;;;7.53;;
69081;SDS011;69029;51.986;5.760;2023-05-10T10:14:19;12.10;;;7.47;;
69081;SDS011;69029;51.986;5.760;2023-05-10T10:16:46;10.68;;;6.93;;
69081;SDS011;69029;51.986;5.760;2023-05-10T10:19:12;15.68;;;8.05;;
69081;SDS011;69029;51.986;5.760;2023-05-10T10:21:38;14.77;;;8.48;;
69081;SDS011;69029;51.986;5.760;2023-05-10T10:24:04;22.65;;;9.35;;
69081;SDS011;69029;51.986;5.760;2023-05-10T10:26:31;13.82;;;8.40;;
69081;SDS011;69029;51.986;5.760;2023-05-10T10:29:34;13.90;;;8.10;;
69081;SDS011;69029;51.986;5.760;2023-05-10T10:32:03;13.05;;;8.48;;
69081;SDS011;69029;51.986;5.760;2023-05-10T10:34:43;14.50;;;8.70;;
69081;SDS011;69029;51.986;5.760;2023-05-10T10:37:09;11.65;;;8.05;;
69081;SDS011;69029;51.986;5.760;2023-05-10T10:39:35;12.70;;;7.65;;
69081;SDS011;69029;51.986;5.760;2023-05-10T10:42:01;12.38;;;7.65;;
69081;SDS011;69029;51.986;5.760;2023-05-10T10:49:25;11.50;;;7.40;;
69081;SDS011;69029;51.986;5.760;2023-05-10T10:55:19;11.40;;;7.55;;
69081;SDS011;69029;51.986;5.760;2023-05-10T10:57:50;12.20;;;6.43;;
69081;SDS011;69029;51.986;5.760;2023-05-10T11:00:31;10.43;;;6.65;;
69081;SDS011;69029;51.986;5.760;2023-05-10T11:03:08;10.07;;;6.63;;
69081;SDS011;69029;51.986;5.760;2023-05-10T11:05:45;10.68;;;6.72;;
69081;SDS011;69029;51.986;5.760;2023-05-10T11:08:15;9.23;;;6.32;;
69081;SDS011;69029;51.986;5.760;2023-05-10T11:13:29;9.77;;;6.20;;
69081;SDS011;69029;51.986;5.760;2023-05-10T11:15:56;9.82;;;6.30;;
69081;SDS011;69029;51.986;5.760;2023-05-10T11:18:24;10.57;;;6.55;;
69081;SDS011;69029;51.986;5.760;2023-05-10T11:23:31;9.30;;;5.93;;
69081;SDS011;69029;51.986;5.760;2023-05-10T11:25:58;10.10;;;6.53;;
69081;SDS011;69029;51.986;5.760;2023-05-10T11:28:26;7.82;;;5.65;;
69081;SDS011;69029;51.986;5.760;2023-05-10T11:30:53;8.60;;;5.75;;
69081;SDS011;69029;51.986;5.760;2023-05-10T11:33:19;9.88;;;6.30;;
69081;SDS011;69029;51.986;5.760;2023-05-10T11:35:45;8.93;;;6.38;;
69081;SDS011;69029;51.986;5.760;2023-05-10T11:38:11;13.57;;;6.20;;
69081;SDS011;69029;51.986;5.760;2023-05-10T11:40:38;11.35;;;6.57;;
69081;SDS011;69029;51.986;5.760;2023-05-10T11:43:08;11.05;;;6.10;;
69081;SDS011;69029;51.986;5.760;2023-05-10T11:45:37;14.68;;;5.88;;
69081;SDS011;69029;51.986;5.760;2023-05-10T11:48:02;10.80;;;6.50;;
69081;SDS011;69029;51.986;5.760;2023-05-10T11:50:29;6.95;;;5.15;;
69081;SDS011;69029;51.986;5.760;2023-05-10T11:52:55;8.98;;;5.20;;
69081;SDS011;69029;51.986;5.760;2023-05-10T11:55:22;9.32;;;5.32;;
69081;SDS011;69029;51.986;5.760;2023-05-10T11:57:52;10.18;;;5.28;;
69081;SDS011;69029;51.986;5.760;2023-05-10T12:00:24;10.55;;;5.00;;
69081;SDS011;69029;51.986;5.760;2023-05-10T12:02:50;9.15;;;5.00;;
69081;SDS011;69029;51.986;5.760;2023-05-10T12:05:16;6.70;;;5.18;;
69081;SDS011;69029;51.986;5.760;2023-05-10T12:07:42;6.82;;;4.95;;
69081;SDS011;69029;51.986;5.760;2023-05-10T12:10:11;6.40;;;4.45;;
69081;SDS011;69029;51.986;5.760;2023-05-10T12:12:43;10.38;;;4.20;;
69081;SDS011;69029;51.986;5.760;2023-05-10T12:15:16;7.05;;;4.40;;
69081;SDS011;69029;51.986;5.760;2023-05-10T12:17:46;10.93;;;5.13;;
69081;SDS011;69029;51.986;5.760;2023-05-10T12:20:22;7.25;;;4.35;;
69081;SDS011;69029;51.986;5.760;2023-05-10T12:22:50;6.55;;;4.63;;
69081;SDS011;69029;51.986;5.760;2023-05-10T12:25:19;7.95;;;4.20;;
69081;SDS011;69029;51.986;5.760;2023-05-10T12:27:48;7.30;;;4.85;;
69081;SDS011;69029;51.986;5.760;2023-05-10T12:30:27;7.47;;;4.32;;
69081;SDS011;69029;51.986;5.760;2023-05-10T12:33:17;5.97;;;4.28;;
69081;SDS011;69029;51.986;5.760;2023-05-10T12:38:27;6.60;;;4.15;;
69081;SDS011;69029;51.986;5.760;2023-05-10T12:41:07;9.23;;;4.18;;
69081;SDS011;69029;51.986;5.760;2023-05-10T12:43:43;6.78;;;4.50;;
69081;SDS011;69029;51.986;5.760;2023-05-10T12:46:09;6.15;;;4.00;;
69081;SDS011;69029;51.986;5.760;2023-05-10T12:48:42;8.18;;;4.68;;
69081;SDS011;69029;51.986;5.760;2023-05-10T12:51:09;9.73;;;4.80;;
69081;SDS011;69029;51.986;5.760;2023-05-10T12:53:36;11.00;;;4.53;;
69081;SDS011;69029;51.986;5.760;2023-05-10T12:56:02;6.57;;;3.80;;
69081;SDS011;69029;51.986;5.760;2023-05-10T12:58:29;8.43;;;4.00;;
69081;SDS011;69029;51.986;5.760;2023-05-10T13:00:55;12.07;;;4.93;;
69081;SDS011;69029;51.986;5.760;2023-05-10T13:03:23;8.50;;;4.63;;
69081;SDS011;69029;51.986;5.760;2023-05-10T13:05:49;7.78;;;3.70;;
69081;SDS011;69029;51.986;5.760;2023-05-10T13:08:15;7.25;;;4.10;;
69081;SDS011;69029;51.986;5.760;2023-05-10T13:10:41;7.05;;;3.85;;
69081;SDS011;69029;51.986;5.760;2023-05-10T13:13:07;6.82;;;3.80;;
69081;SDS011;69029;51.986;5.760;2023-05-10T13:15:33;5.43;;;3.80;;
69081;SDS011;69029;51.986;5.760;2023-05-10T13:17:59;5.65;;;3.45;;
69081;SDS011;69029;51.986;5.760;2023-05-10T13:20:25;4.28;;;3.38;;
69081;SDS011;69029;51.986;5.760;2023-05-10T13:22:50;6.03;;;3.90;;
69081;SDS011;69029;51.986;5.760;2023-05-10T13:25:16;6.57;;;3.90;;
69081;SDS011;69029;51.986;5.760;2023-05-10T13:27:42;9.10;;;5.68;;
69081;SDS011;69029;51.986;5.760;2023-05-10T13:30:08;9.98;;;6.00;;
69081;SDS011;69029;51.986;5.760;2023-05-10T13:32:34;8.15;;;5.70;;
69081;SDS011;69029;51.986;5.760;2023-05-10T13:35:00;6.05;;;5.10;;
69081;SDS011;69029;51.986;5.760;2023-05-10T13:37:28;6.90;;;5.40;;
69081;SDS011;69029;51.986;5.760;2023-05-10T13:39:55;8.57;;;4.97;;
69081;SDS011;69029;51.986;5.760;2023-05-10T13:42:21;7.15;;;5.15;;
69081;SDS011;69029;51.986;5.760;2023-05-10T13:44:47;8.98;;;5.85;;
69081;SDS011;69029;51.986;5.760;2023-05-10T13:47:13;9.65;;;5.60;;
69081;SDS011;69029;51.986;5.760;2023-05-10T13:49:39;8.73;;;6.05;;
69081;SDS011;69029;51.986;5.760;2023-05-10T13:52:04;8.50;;;5.90;;
69081;SDS011;69029;51.986;5.760;2023-05-10T13:54:34;8.50;;;6.32;;
69081;SDS011;69029;51.986;5.760;2023-05-10T13:57:00;8.50;;;6.82;;
69081;SDS011;69029;51.986;5.760;2023-05-10T13:59:26;7.47;;;6.45;;
69081;SDS011;69029;51.986;5.760;2023-05-10T14:01:51;8.38;;;6.68;;
69081;SDS011;69029;51.986;5.760;2023-05-10T14:04:17;9.73;;;6.38;;
69081;SDS011;69029;51.986;5.760;2023-05-10T14:06:43;10.63;;;6.82;;
69081;SDS011;69029;51.986;5.760;2023-05-10T14:09:08;9.73;;;6.78;;
69081;SDS011;69029;51.986;5.760;2023-05-10T14:11:34;6.07;;;5.10;;
69081;SDS011;69029;51.986;5.760;2023-05-10T14:14:00;6.15;;;5.15;;
69081;SDS011;69029;51.986;5.760;2023-05-10T14:16:25;6.22;;;4.20;;
69081;SDS011;69029;51.986;5.760;2023-05-10T14:18:52;4.05;;;3.33;;
69081;SDS011;69029;51.986;5.760;2023-05-10T14:21:17;3.85;;;3.45;;
69081;SDS011;69029;51.986;5.760;2023-05-10T14:23:43;4.05;;;2.75;;
69081;SDS011;69029;51.986;5.760;2023-05-10T14:26:09;4.85;;;3.20;;
69081;SDS011;69029;51.986;5.760;2023-05-10T14:28:35;4.18;;;3.22;;
69081;SDS011;69029;51.986;5.760;2023-05-10T14:31:01;5.35;;;3.10;;
69081;SDS011;69029;51.986;5.760;2023-05-10T14:33:27;6.05;;;3.90;;
69081;SDS011;69029;51.986;5.760;2023-05-10T14:35:54;4.35;;;3.20;;
69081;SDS011;69029;51.986;5.760;2023-05-10T14:38:21;3.38;;;3.00;;
69081;SDS011;69029;51.986;5.760;2023-05-10T14:40:48;3.92;;;3.28;;
69081;SDS011;69029;51.986;5.760;2023-05-10T14:43:14;3.50;;;3.20;;
69081;SDS011;69029;51.986;5.760;2023-05-10T14:45:40;3.40;;;3.10;;
69081;SDS011;69029;51.986;5.760;2023-05-10T14:48:06;4.68;;;2.80;;
69081;SDS011;69029;51.986;5.760;2023-05-10T14:50:36;4.72;;;2.90;;
69081;SDS011;69029;51.986;5.760;2023-05-10T14:53:01;3.15;;;2.42;;
69081;SDS011;69029;51.986;5.760;2023-05-10T14:55:27;3.08;;;2.60;;
69081;SDS011;69029;51.986;5.760;2023-05-10T14:57:52;4.20;;;2.47;;
69081;SDS011;69029;51.986;5.760;2023-05-10T15:00:19;4.50;;;2.08;;
69081;SDS011;69029;51.986;5.760;2023-05-10T15:02:45;2.00;;;1.88;;
69081;SDS011;69029;51.986;5.760;2023-05-10T15:05:10;3.40;;;1.80;;
69081;SDS011;69029;51.986;5.760;2023-05-10T15:07:36;4.72;;;1.77;;
69081;SDS011;69029;51.986;5.760;2023-05-10T15:10:02;6.30;;;2.08;;
69081;SDS011;69029;51.986;5.760;2023-05-10T15:12:28;3.60;;;1.80;;
69081;SDS011;69029;51.986;5.760;2023-05-10T15:14:53;2.38;;;1.70;;
69081;SDS011;69029;51.986;5.760;2023-05-10T15:17:19;4.43;;;2.22;;
69081;SDS011;69029;51.986;5.760;2023-05-10T15:19:45;6.82;;;2.72;;